sensor_id;sensor_type;location;lat;lon;timestamp;P1;durP1;ratioP1;P2;durP2;ratioP2
9370;SDS011;4725;48.384;8.984;2022-10-03T00:01:20;4.07;;;1.80;;
9370;SDS011;4725;48.384;8.984;2022-10-03T00:04:10;4.50;;;2.10;;
9370;SDS011;4725;48.384;8.984;2022-10-03T00:06:48;2.73;;;1.83;;
9370;SDS011;4725;48.384;8.984;2022-10-03T00:09:32;2.57;;;2.00;;
9370;SDS011;4725;48.384;8.984;2022-10-03T00:12:13;2.80;;;2.00;;
9370;SDS011;4725;48.384;8.984;2022-10-03T00:14:49;4.30;;;2.00;;
9370;SDS011;4725;48.384;8.984;2022-10-03T00:17:24;2.40;;;2.00;;
9370;SDS011;4725;48.384;8.984;2022-10-03T00:19:58;40.03;;;3.63;;
9370;SDS011;4725;48.384;8.984;2022-10-03T00:22:35;51.60;;;4.43;;
9370;SDS011;4725;48.384;8.984;2022-10-03T00:25:19;91.93;;;7.60;;
9370;SDS011;4725;48.384;8.984;2022-10-03T00:27:55;43.03;;;3.00;;
9370;SDS011;4725;48.384;8.984;2022-10-03T00:30:41;79.60;;;11.43;;
9370;SDS011;4725;48.384;8.984;2022-10-03T00:33:19;42.90;;;2.77;;
9370;SDS011;4725;48.384;8.984;2022-10-03T00:35:56;82.37;;;6.33;;
9370;SDS011;4725;48.384;8.984;2022-10-03T00:38:43;35.43;;;2.47;;
9370;SDS011;4725;48.384;8.984;2022-10-03T00:41:34;26.43;;;2.83;;
9370;SDS011;4725;48.384;8.984;2022-10-03T00:47:21;8.80;;;1.50;;
9370;SDS011;4725;48.384;8.984;2022-10-03T00:53:10;29.53;;;2.20;;
9370;SDS011;4725;48.384;8.984;2022-10-03T00:58:55;24.80;;;1.47;;
9370;SDS011;4725;48.384;8.984;2022-10-03T01:01:36;5.03;;;1.03;;
9370;SDS011;4725;48.384;8.984;2022-10-03T01:07:02;20.47;;;2.00;;
9370;SDS011;4725;48.384;8.984;2022-10-03T01:09:49;9.03;;;1.13;;
9370;SDS011;4725;48.384;8.984;2022-10-03T01:15:18;25.00;;;1.60;;
9370;SDS011;4725;48.384;8.984;2022-10-03T01:18:06;26.77;;;1.77;;
9370;SDS011;4725;48.384;8.984;2022-10-03T01:20:50;44.40;;;2.57;;
9370;SDS011;4725;48.384;8.984;2022-10-03T01:26:49;35.57;;;4.63;;
9370;SDS011;4725;48.384;8.984;2022-10-03T01:29:29;9.20;;;1.00;;
9370;SDS011;4725;48.384;8.984;2022-10-03T01:32:25;2.67;;;1.03;;
9370;SDS011;4725;48.384;8.984;2022-10-03T01:34:59;0.90;;;0.70;;
9370;SDS011;4725;48.384;8.984;2022-10-03T01:37:37;0.63;;;0.63;;
9370;SDS011;4725;48.384;8.984;2022-10-03T01:40:12;2.60;;;0.80;;
9370;SDS011;4725;48.384;8.984;2022-10-03T01:42:52;3.00;;;0.70;;
9370;SDS011;4725;48.384;8.984;2022-10-03T01:45:30;2.83;;;0.70;;
9370;SDS011;4725;48.384;8.984;2022-10-03T01:48:05;2.77;;;0.60;;
9370;SDS011;4725;48.384;8.984;2022-10-03T01:50:37;1.17;;;1.07;;
9370;SDS011;4725;48.384;8.984;2022-10-03T01:53:18;2.70;;;1.50;;
9370;SDS011;4725;48.384;8.984;2022-10-03T01:55:53;2.30;;;1.30;;
9370;SDS011;4725;48.384;8.984;2022-10-03T01:58:27;1.33;;;1.03;;
9370;SDS011;4725;48.384;8.984;2022-10-03T02:01:03;1.90;;;1.40;;
9370;SDS011;4725;48.384;8.984;2022-10-03T02:03:36;5.00;;;1.63;;
9370;SDS011;4725;48.384;8.984;2022-10-03T02:06:12;5.67;;;2.20;;
9370;SDS011;4725;48.384;8.984;2022-10-03T02:08:49;3.93;;;2.10;;
9370;SDS011;4725;48.384;8.984;2022-10-03T02:11:21;4.67;;;2.50;;
9370;SDS011;4725;48.384;8.984;2022-10-03T02:13:57;5.70;;;2.10;;
9370;SDS011;4725;48.384;8.984;2022-10-03T02:16:33;3.23;;;1.83;;
9370;SDS011;4725;48.384;8.984;2022-10-03T02:19:10;4.77;;;1.93;;
9370;SDS011;4725;48.384;8.984;2022-10-03T02:21:46;2.47;;;1.60;;
9370;SDS011;4725;48.384;8.984;2022-10-03T02:24:19;2.57;;;1.50;;
9370;SDS011;4725;48.384;8.984;2022-10-03T02:27:04;1.97;;;1.50;;
9370;SDS011;4725;48.384;8.984;2022-10-03T02:30:03;3.60;;;1.90;;
9370;SDS011;4725;48.384;8.984;2022-10-03T02:39:05;3.67;;;1.40;;
9370;SDS011;4725;48.384;8.984;2022-10-03T02:41:58;1.63;;;1.33;;
9370;SDS011;4725;48.384;8.984;2022-10-03T02:44:57;2.73;;;1.87;;
9370;SDS011;4725;48.384;8.984;2022-10-03T02:53:48;4.17;;;1.77;;
9370;SDS011;4725;48.384;8.984;2022-10-03T02:59:50;2.03;;;1.80;;
9370;SDS011;4725;48.384;8.984;2022-10-03T03:02:47;4.73;;;1.90;;
9370;SDS011;4725;48.384;8.984;2022-10-03T03:08:49;1.87;;;1.60;;
9370;SDS011;4725;48.384;8.984;2022-10-03T03:17:55;3.60;;;2.30;;
9370;SDS011;4725;48.384;8.984;2022-10-03T03:20:37;3.83;;;2.40;;
9370;SDS011;4725;48.384;8.984;2022-10-03T03:26:24;4.70;;;2.37;;
9370;SDS011;4725;48.384;8.984;2022-10-03T03:29:07;2.63;;;2.20;;
9370;SDS011;4725;48.384;8.984;2022-10-03T03:31:45;5.60;;;1.80;;
9370;SDS011;4725;48.384;8.984;2022-10-03T03:34:28;6.47;;;2.27;;
9370;SDS011;4725;48.384;8.984;2022-10-03T03:37:03;2.20;;;2.00;;
9370;SDS011;4725;48.384;8.984;2022-10-03T03:39:41;3.03;;;2.30;;
9370;SDS011;4725;48.384;8.984;2022-10-03T03:42:31;6.03;;;3.07;;
9370;SDS011;4725;48.384;8.984;2022-10-03T03:45:21;8.27;;;4.00;;
9370;SDS011;4725;48.384;8.984;2022-10-03T03:48:13;10.87;;;6.27;;
9370;SDS011;4725;48.384;8.984;2022-10-03T03:51:06;3.90;;;2.93;;
9370;SDS011;4725;48.384;8.984;2022-10-03T03:53:55;6.87;;;3.60;;
9370;SDS011;4725;48.384;8.984;2022-10-03T03:56:49;4.13;;;3.27;;
9370;SDS011;4725;48.384;8.984;2022-10-03T03:59:40;4.83;;;3.57;;
9370;SDS011;4725;48.384;8.984;2022-10-03T04:02:26;5.93;;;3.07;;
9370;SDS011;4725;48.384;8.984;2022-10-03T04:05:06;3.20;;;2.67;;
9370;SDS011;4725;48.384;8.984;2022-10-03T04:07:44;6.73;;;3.43;;
9370;SDS011;4725;48.384;8.984;2022-10-03T04:10:33;13.73;;;4.37;;
9370;SDS011;4725;48.384;8.984;2022-10-03T04:19:16;4.90;;;3.33;;
9370;SDS011;4725;48.384;8.984;2022-10-03T04:21:57;8.83;;;4.33;;
9370;SDS011;4725;48.384;8.984;2022-10-03T04:24:42;5.73;;;3.03;;
9370;SDS011;4725;48.384;8.984;2022-10-03T04:27:31;9.83;;;3.80;;
9370;SDS011;4725;48.384;8.984;2022-10-03T04:30:08;6.33;;;3.77;;
9370;SDS011;4725;48.384;8.984;2022-10-03T04:32:48;5.27;;;3.97;;
9370;SDS011;4725;48.384;8.984;2022-10-03T04:35:45;3.43;;;3.07;;
9370;SDS011;4725;48.384;8.984;2022-10-03T04:38:38;4.13;;;3.20;;
9370;SDS011;4725;48.384;8.984;2022-10-03T04:41:14;4.57;;;2.40;;
9370;SDS011;4725;48.384;8.984;2022-10-03T04:43:48;7.60;;;2.63;;
9370;SDS011;4725;48.384;8.984;2022-10-03T04:46:24;5.80;;;2.80;;
9370;SDS011;4725;48.384;8.984;2022-10-03T04:49:01;3.87;;;2.33;;
9370;SDS011;4725;48.384;8.984;2022-10-03T04:51:45;6.77;;;2.90;;
9370;SDS011;4725;48.384;8.984;2022-10-03T04:54:21;8.67;;;2.83;;
9370;SDS011;4725;48.384;8.984;2022-10-03T04:56:57;5.53;;;3.23;;
9370;SDS011;4725;48.384;8.984;2022-10-03T04:59:28;4.03;;;2.87;;
9370;SDS011;4725;48.384;8.984;2022-10-03T05:02:06;18.90;;;3.50;;
9370;SDS011;4725;48.384;8.984;2022-10-03T05:04:57;72.07;;;5.80;;
9370;SDS011;4725;48.384;8.984;2022-10-03T05:07:44;46.37;;;4.33;;
9370;SDS011;4725;48.384;8.984;2022-10-03T05:13:11;75.30;;;4.97;;
9370;SDS011;4725;48.384;8.984;2022-10-03T05:15:46;80.37;;;6.50;;
9370;SDS011;4725;48.384;8.984;2022-10-03T05:18:21;27.47;;;3.70;;
9370;SDS011;4725;48.384;8.984;2022-10-03T05:21:01;74.83;;;6.43;;
9370;SDS011;4725;48.384;8.984;2022-10-03T05:23:40;26.63;;;3.17;;
9370;SDS011;4725;48.384;8.984;2022-10-03T05:26:17;34.60;;;4.00;;
9370;SDS011;4725;48.384;8.984;2022-10-03T05:28:51;59.47;;;3.63;;
9370;SDS011;4725;48.384;8.984;2022-10-03T05:31:34;37.70;;;2.67;;
9370;SDS011;4725;48.384;8.984;2022-10-03T05:34:14;45.33;;;3.20;;
9370;SDS011;4725;48.384;8.984;2022-10-03T05:36:54;39.67;;;4.70;;
9370;SDS011;4725;48.384;8.984;2022-10-03T05:39:36;38.37;;;3.00;;
9370;SDS011;4725;48.384;8.984;2022-10-03T05:45:05;21.37;;;2.57;;
9370;SDS011;4725;48.384;8.984;2022-10-03T05:47:47;46.63;;;3.67;;
9370;SDS011;4725;48.384;8.984;2022-10-03T05:53:56;25.83;;;3.23;;
9370;SDS011;4725;48.384;8.984;2022-10-03T05:56:46;12.77;;;3.37;;
9370;SDS011;4725;48.384;8.984;2022-10-03T05:59:44;8.83;;;3.63;;
9370;SDS011;4725;48.384;8.984;2022-10-03T06:02:35;4.90;;;3.43;;
9370;SDS011;4725;48.384;8.984;2022-10-03T06:05:41;4.67;;;3.10;;
9370;SDS011;4725;48.384;8.984;2022-10-03T06:11:36;5.73;;;3.40;;
9370;SDS011;4725;48.384;8.984;2022-10-03T06:17:05;4.13;;;3.20;;
9370;SDS011;4725;48.384;8.984;2022-10-03T06:19:46;7.33;;;3.73;;
9370;SDS011;4725;48.384;8.984;2022-10-03T06:28:27;25.03;;;4.20;;
9370;SDS011;4725;48.384;8.984;2022-10-03T06:37:32;10.73;;;2.80;;
9370;SDS011;4725;48.384;8.984;2022-10-03T06:46:36;5.67;;;3.20;;
9370;SDS011;4725;48.384;8.984;2022-10-03T06:52:22;17.70;;;4.53;;
9370;SDS011;4725;48.384;8.984;2022-10-03T06:55:29;8.03;;;3.53;;
9370;SDS011;4725;48.384;8.984;2022-10-03T06:58:16;4.70;;;3.30;;
9370;SDS011;4725;48.384;8.984;2022-10-03T07:04:07;4.90;;;3.10;;
9370;SDS011;4725;48.384;8.984;2022-10-03T07:10:02;6.87;;;3.50;;
9370;SDS011;4725;48.384;8.984;2022-10-03T07:12:45;4.70;;;3.60;;
9370;SDS011;4725;48.384;8.984;2022-10-03T07:19:02;5.53;;;3.73;;
9370;SDS011;4725;48.384;8.984;2022-10-03T07:25:02;7.23;;;3.27;;
9370;SDS011;4725;48.384;8.984;2022-10-03T07:28:00;5.37;;;3.47;;
9370;SDS011;4725;48.384;8.984;2022-10-03T07:30:52;25.10;;;16.67;;
9370;SDS011;4725;48.384;8.984;2022-10-03T07:36:31;6.03;;;4.07;;
9370;SDS011;4725;48.384;8.984;2022-10-03T07:42:37;9.70;;;4.33;;
9370;SDS011;4725;48.384;8.984;2022-10-03T07:45:33;7.83;;;4.57;;
9370;SDS011;4725;48.384;8.984;2022-10-03T07:48:24;5.10;;;4.10;;
9370;SDS011;4725;48.384;8.984;2022-10-03T07:51:28;5.20;;;3.57;;
9370;SDS011;4725;48.384;8.984;2022-10-03T07:54:23;6.30;;;4.40;;
9370;SDS011;4725;48.384;8.984;2022-10-03T08:00:07;4.63;;;3.60;;
9370;SDS011;4725;48.384;8.984;2022-10-03T08:06:07;9.57;;;4.20;;
9370;SDS011;4725;48.384;8.984;2022-10-03T08:08:58;8.47;;;4.00;;
9370;SDS011;4725;48.384;8.984;2022-10-03T08:11:49;9.67;;;6.47;;
9370;SDS011;4725;48.384;8.984;2022-10-03T08:14:39;5.40;;;3.63;;
9370;SDS011;4725;48.384;8.984;2022-10-03T08:17:23;15.33;;;4.63;;
9370;SDS011;4725;48.384;8.984;2022-10-03T08:20:21;4.30;;;3.13;;
9370;SDS011;4725;48.384;8.984;2022-10-03T08:26:09;3.87;;;3.47;;
9370;SDS011;4725;48.384;8.984;2022-10-03T08:28:50;3.20;;;2.87;;
9370;SDS011;4725;48.384;8.984;2022-10-03T08:34:38;4.82;;;2.70;;
9370;SDS011;4725;48.384;8.984;2022-10-03T08:37:39;3.00;;;2.70;;
9370;SDS011;4725;48.384;8.984;2022-10-03T08:41:08;6.57;;;3.08;;
9370;SDS011;4725;48.384;8.984;2022-10-03T08:53:48;3.30;;;3.00;;
9370;SDS011;4725;48.384;8.984;2022-10-03T08:56:26;2.88;;;2.58;;
9370;SDS011;4725;48.384;8.984;2022-10-03T08:59:12;4.13;;;2.78;;
9370;SDS011;4725;48.384;8.984;2022-10-03T09:02:19;5.22;;;3.38;;
9370;SDS011;4725;48.384;8.984;2022-10-03T09:11:18;5.85;;;3.97;;
9370;SDS011;4725;48.384;8.984;2022-10-03T09:14:26;6.90;;;4.38;;
9370;SDS011;4725;48.384;8.984;2022-10-03T09:20:16;6.20;;;3.97;;
9370;SDS011;4725;48.384;8.984;2022-10-03T09:23:05;6.23;;;3.90;;
9370;SDS011;4725;48.384;8.984;2022-10-03T09:25:57;8.40;;;4.17;;
9370;SDS011;4725;48.384;8.984;2022-10-03T09:32:14;8.83;;;4.13;;
9370;SDS011;4725;48.384;8.984;2022-10-03T09:38:29;6.30;;;3.33;;
9370;SDS011;4725;48.384;8.984;2022-10-03T09:44:34;5.95;;;3.40;;
9370;SDS011;4725;48.384;8.984;2022-10-03T09:53:34;7.32;;;4.00;;
9370;SDS011;4725;48.384;8.984;2022-10-03T09:56:34;7.82;;;4.70;;
9370;SDS011;4725;48.384;8.984;2022-10-03T10:02:31;7.70;;;4.03;;
9370;SDS011;4725;48.384;8.984;2022-10-03T10:05:26;6.45;;;3.40;;
9370;SDS011;4725;48.384;8.984;2022-10-03T10:08:30;5.65;;;3.28;;
9370;SDS011;4725;48.384;8.984;2022-10-03T10:11:24;8.85;;;3.78;;
9370;SDS011;4725;48.384;8.984;2022-10-03T10:14:10;5.28;;;2.95;;
9370;SDS011;4725;48.384;8.984;2022-10-03T10:20:26;8.10;;;3.30;;
9370;SDS011;4725;48.384;8.984;2022-10-03T10:23:17;8.32;;;3.33;;
9370;SDS011;4725;48.384;8.984;2022-10-03T10:29:17;4.95;;;3.00;;
9370;SDS011;4725;48.384;8.984;2022-10-03T10:35:15;9.15;;;3.88;;
9370;SDS011;4725;48.384;8.984;2022-10-03T10:38:14;8.88;;;3.28;;
9370;SDS011;4725;48.384;8.984;2022-10-03T10:40:58;7.75;;;3.60;;
9370;SDS011;4725;48.384;8.984;2022-10-03T10:54:09;6.00;;;3.42;;
9370;SDS011;4725;48.384;8.984;2022-10-03T10:57:08;6.15;;;3.13;;
9370;SDS011;4725;48.384;8.984;2022-10-03T11:18:54;4.40;;;2.45;;
9370;SDS011;4725;48.384;8.984;2022-10-03T11:21:53;4.78;;;2.78;;
9370;SDS011;4725;48.384;8.984;2022-10-03T11:28:06;8.93;;;3.47;;
9370;SDS011;4725;48.384;8.984;2022-10-03T11:30:57;6.95;;;2.58;;
9370;SDS011;4725;48.384;8.984;2022-10-03T11:36:58;3.97;;;2.63;;
9370;SDS011;4725;48.384;8.984;2022-10-03T11:39:39;4.82;;;2.53;;
9370;SDS011;4725;48.384;8.984;2022-10-03T11:42:12;5.40;;;2.70;;
9370;SDS011;4725;48.384;8.984;2022-10-03T11:44:58;8.63;;;3.15;;
9370;SDS011;4725;48.384;8.984;2022-10-03T11:47:38;7.15;;;3.60;;
9370;SDS011;4725;48.384;8.984;2022-10-03T11:50:20;5.10;;;3.00;;
9370;SDS011;4725;48.384;8.984;2022-10-03T11:53:10;4.65;;;3.03;;
9370;SDS011;4725;48.384;8.984;2022-10-03T11:55:44;4.78;;;2.45;;
9370;SDS011;4725;48.384;8.984;2022-10-03T11:58:26;6.63;;;2.60;;
9370;SDS011;4725;48.384;8.984;2022-10-03T12:01:10;4.88;;;2.97;;
9370;SDS011;4725;48.384;8.984;2022-10-03T12:03:55;5.05;;;2.85;;
9370;SDS011;4725;48.384;8.984;2022-10-03T12:06:43;5.57;;;2.30;;
9370;SDS011;4725;48.384;8.984;2022-10-03T12:09:40;4.72;;;2.53;;
9370;SDS011;4725;48.384;8.984;2022-10-03T12:12:21;5.72;;;2.88;;
9370;SDS011;4725;48.384;8.984;2022-10-03T12:14:57;5.60;;;2.90;;
9370;SDS011;4725;48.384;8.984;2022-10-03T12:17:31;4.82;;;2.58;;
9370;SDS011;4725;48.384;8.984;2022-10-03T12:20:01;5.25;;;2.72;;
9370;SDS011;4725;48.384;8.984;2022-10-03T12:22:38;6.53;;;2.60;;
9370;SDS011;4725;48.384;8.984;2022-10-03T12:25:17;4.32;;;2.60;;
9370;SDS011;4725;48.384;8.984;2022-10-03T12:27:55;6.72;;;2.55;;
9370;SDS011;4725;48.384;8.984;2022-10-03T12:30:29;3.75;;;2.50;;
9370;SDS011;4725;48.384;8.984;2022-10-03T12:33:11;4.70;;;2.20;;
9370;SDS011;4725;48.384;8.984;2022-10-03T12:35:52;3.88;;;2.10;;
9370;SDS011;4725;48.384;8.984;2022-10-03T12:38:30;3.42;;;2.35;;
9370;SDS011;4725;48.384;8.984;2022-10-03T12:41:13;4.38;;;2.30;;
9370;SDS011;4725;48.384;8.984;2022-10-03T12:43:53;4.72;;;2.53;;
9370;SDS011;4725;48.384;8.984;2022-10-03T12:46:33;4.60;;;2.58;;
9370;SDS011;4725;48.384;8.984;2022-10-03T12:49:13;5.57;;;2.20;;
9370;SDS011;4725;48.384;8.984;2022-10-03T12:51:50;5.45;;;2.55;;
9370;SDS011;4725;48.384;8.984;2022-10-03T12:54:33;6.63;;;2.30;;
9370;SDS011;4725;48.384;8.984;2022-10-03T13:00:12;5.00;;;2.38;;
9370;SDS011;4725;48.384;8.984;2022-10-03T13:02:46;3.75;;;2.50;;
9370;SDS011;4725;48.384;8.984;2022-10-03T13:05:41;5.40;;;2.65;;
9370;SDS011;4725;48.384;8.984;2022-10-03T13:08:37;5.43;;;2.10;;
9370;SDS011;4725;48.384;8.984;2022-10-03T13:11:14;2.63;;;2.00;;
9370;SDS011;4725;48.384;8.984;2022-10-03T13:13:58;5.40;;;2.33;;
9370;SDS011;4725;48.384;8.984;2022-10-03T13:16:32;3.90;;;2.38;;
9370;SDS011;4725;48.384;8.984;2022-10-03T13:19:07;5.55;;;2.25;;
9370;SDS011;4725;48.384;8.984;2022-10-03T13:21:45;4.50;;;2.33;;
9370;SDS011;4725;48.384;8.984;2022-10-03T13:24:28;2.90;;;2.08;;
9370;SDS011;4725;48.384;8.984;2022-10-03T13:27:04;9.98;;;2.47;;
9370;SDS011;4725;48.384;8.984;2022-10-03T13:29:44;3.40;;;2.40;;
9370;SDS011;4725;48.384;8.984;2022-10-03T13:32:15;4.60;;;2.78;;
9370;SDS011;4725;48.384;8.984;2022-10-03T13:34:58;4.60;;;2.65;;
9370;SDS011;4725;48.384;8.984;2022-10-03T13:37:51;4.20;;;2.55;;
9370;SDS011;4725;48.384;8.984;2022-10-03T13:40:47;5.32;;;2.67;;
9370;SDS011;4725;48.384;8.984;2022-10-03T13:43:22;4.07;;;2.33;;
9370;SDS011;4725;48.384;8.984;2022-10-03T13:46:02;5.15;;;2.58;;
9370;SDS011;4725;48.384;8.984;2022-10-03T13:48:32;4.63;;;2.30;;
9370;SDS011;4725;48.384;8.984;2022-10-03T13:51:01;4.57;;;2.13;;
9370;SDS011;4725;48.384;8.984;2022-10-03T13:53:42;4.70;;;2.30;;
9370;SDS011;4725;48.384;8.984;2022-10-03T13:56:24;4.60;;;2.17;;
9370;SDS011;4725;48.384;8.984;2022-10-03T13:59:13;3.75;;;2.30;;
9370;SDS011;4725;48.384;8.984;2022-10-03T14:02:05;4.07;;;2.15;;
9370;SDS011;4725;48.384;8.984;2022-10-03T14:07:44;6.20;;;2.60;;
9370;SDS011;4725;48.384;8.984;2022-10-03T14:10:23;5.13;;;2.95;;
9370;SDS011;4725;48.384;8.984;2022-10-03T14:13:19;3.35;;;2.20;;
9370;SDS011;4725;48.384;8.984;2022-10-03T14:15:56;2.38;;;1.90;;
9370;SDS011;4725;48.384;8.984;2022-10-03T14:18:34;4.13;;;2.33;;
9370;SDS011;4725;48.384;8.984;2022-10-03T14:21:25;5.35;;;2.22;;
9370;SDS011;4725;48.384;8.984;2022-10-03T14:24:11;5.10;;;2.15;;
9370;SDS011;4725;48.384;8.984;2022-10-03T14:27:00;3.08;;;2.08;;
9370;SDS011;4725;48.384;8.984;2022-10-03T14:29:36;3.05;;;2.10;;
9370;SDS011;4725;48.384;8.984;2022-10-03T14:32:12;4.03;;;2.17;;
9370;SDS011;4725;48.384;8.984;2022-10-03T14:34:50;4.82;;;2.50;;
9370;SDS011;4725;48.384;8.984;2022-10-03T14:37:22;3.67;;;2.05;;
9370;SDS011;4725;48.384;8.984;2022-10-03T14:39:57;3.58;;;2.20;;
9370;SDS011;4725;48.384;8.984;2022-10-03T14:45:37;3.17;;;2.08;;
9370;SDS011;4725;48.384;8.984;2022-10-03T14:48:11;3.88;;;2.58;;
9370;SDS011;4725;48.384;8.984;2022-10-03T14:50:41;3.65;;;2.53;;
9370;SDS011;4725;48.384;8.984;2022-10-03T14:53:13;5.78;;;2.25;;
9370;SDS011;4725;48.384;8.984;2022-10-03T14:55:45;2.40;;;2.20;;
9370;SDS011;4725;48.384;8.984;2022-10-03T14:58:23;4.55;;;2.60;;
9370;SDS011;4725;48.384;8.984;2022-10-03T15:00:53;8.18;;;2.45;;
9370;SDS011;4725;48.384;8.984;2022-10-03T15:03:29;6.40;;;2.42;;
9370;SDS011;4725;48.384;8.984;2022-10-03T15:06:29;4.75;;;2.67;;
9370;SDS011;4725;48.384;8.984;2022-10-03T15:08:58;4.30;;;2.15;;
9370;SDS011;4725;48.384;8.984;2022-10-03T15:11:28;3.28;;;2.47;;
9370;SDS011;4725;48.384;8.984;2022-10-03T15:14:01;3.03;;;2.22;;
9370;SDS011;4725;48.384;8.984;2022-10-03T15:16:31;4.28;;;2.67;;
9370;SDS011;4725;48.384;8.984;2022-10-03T15:19:02;3.15;;;2.30;;
9370;SDS011;4725;48.384;8.984;2022-10-03T15:21:34;4.80;;;2.75;;
9370;SDS011;4725;48.384;8.984;2022-10-03T15:24:03;3.97;;;2.55;;
9370;SDS011;4725;48.384;8.984;2022-10-03T15:26:36;5.60;;;2.58;;
9370;SDS011;4725;48.384;8.984;2022-10-03T15:29:05;4.78;;;2.60;;
9370;SDS011;4725;48.384;8.984;2022-10-03T15:31:39;6.32;;;2.72;;
9370;SDS011;4725;48.384;8.984;2022-10-03T15:34:13;4.60;;;2.95;;
9370;SDS011;4725;48.384;8.984;2022-10-03T15:36:45;4.80;;;2.85;;
9370;SDS011;4725;48.384;8.984;2022-10-03T15:39:16;4.00;;;3.10;;
9370;SDS011;4725;48.384;8.984;2022-10-03T15:41:51;3.97;;;2.42;;
9370;SDS011;4725;48.384;8.984;2022-10-03T15:44:23;4.85;;;2.83;;
9370;SDS011;4725;48.384;8.984;2022-10-03T15:46:57;4.30;;;2.72;;
9370;SDS011;4725;48.384;8.984;2022-10-03T15:49:29;3.45;;;2.60;;
9370;SDS011;4725;48.384;8.984;2022-10-03T15:52:05;8.15;;;3.00;;
9370;SDS011;4725;48.384;8.984;2022-10-03T15:54:38;9.77;;;2.47;;
9370;SDS011;4725;48.384;8.984;2022-10-03T15:57:13;5.38;;;3.17;;
9370;SDS011;4725;48.384;8.984;2022-10-03T15:59:45;7.15;;;3.00;;
9370;SDS011;4725;48.384;8.984;2022-10-03T16:02:18;5.15;;;2.97;;
9370;SDS011;4725;48.384;8.984;2022-10-03T16:04:51;8.97;;;3.20;;
9370;SDS011;4725;48.384;8.984;2022-10-03T16:07:22;6.57;;;3.40;;
9370;SDS011;4725;48.384;8.984;2022-10-03T16:10:00;4.93;;;2.63;;
9370;SDS011;4725;48.384;8.984;2022-10-03T16:12:49;5.10;;;2.67;;
9370;SDS011;4725;48.384;8.984;2022-10-03T16:15:24;7.77;;;3.00;;
9370;SDS011;4725;48.384;8.984;2022-10-03T16:17:58;7.77;;;3.90;;
9370;SDS011;4725;48.384;8.984;2022-10-03T16:20:30;7.83;;;3.30;;
9370;SDS011;4725;48.384;8.984;2022-10-03T16:23:07;5.43;;;3.10;;
9370;SDS011;4725;48.384;8.984;2022-10-03T16:25:38;5.57;;;3.50;;
9370;SDS011;4725;48.384;8.984;2022-10-03T16:28:12;4.03;;;3.17;;
9370;SDS011;4725;48.384;8.984;2022-10-03T16:30:44;5.67;;;3.33;;
9370;SDS011;4725;48.384;8.984;2022-10-03T16:33:18;9.63;;;3.77;;
9370;SDS011;4725;48.384;8.984;2022-10-03T16:35:49;9.13;;;3.23;;
9370;SDS011;4725;48.384;8.984;2022-10-03T16:38:20;5.87;;;4.17;;
9370;SDS011;4725;48.384;8.984;2022-10-03T16:40:54;7.57;;;3.63;;
9370;SDS011;4725;48.384;8.984;2022-10-03T16:43:23;6.80;;;3.87;;
9370;SDS011;4725;48.384;8.984;2022-10-03T16:45:52;8.80;;;4.23;;
9370;SDS011;4725;48.384;8.984;2022-10-03T16:48:21;10.03;;;4.17;;
9370;SDS011;4725;48.384;8.984;2022-10-03T16:51:12;12.50;;;4.40;;
9370;SDS011;4725;48.384;8.984;2022-10-03T16:53:43;6.37;;;3.80;;
9370;SDS011;4725;48.384;8.984;2022-10-03T16:56:13;6.27;;;4.03;;
9370;SDS011;4725;48.384;8.984;2022-10-03T16:58:43;8.80;;;6.37;;
9370;SDS011;4725;48.384;8.984;2022-10-03T17:01:21;7.97;;;5.67;;
9370;SDS011;4725;48.384;8.984;2022-10-03T17:03:57;7.03;;;4.37;;
9370;SDS011;4725;48.384;8.984;2022-10-03T17:06:37;9.37;;;4.43;;
9370;SDS011;4725;48.384;8.984;2022-10-03T17:09:06;7.00;;;4.40;;
9370;SDS011;4725;48.384;8.984;2022-10-03T17:11:42;8.73;;;4.20;;
9370;SDS011;4725;48.384;8.984;2022-10-03T17:14:16;7.90;;;4.33;;
9370;SDS011;4725;48.384;8.984;2022-10-03T17:16:48;9.90;;;4.30;;
9370;SDS011;4725;48.384;8.984;2022-10-03T17:19:20;6.83;;;4.63;;
9370;SDS011;4725;48.384;8.984;2022-10-03T17:21:56;8.40;;;5.17;;
9370;SDS011;4725;48.384;8.984;2022-10-03T17:24:36;9.27;;;4.63;;
9370;SDS011;4725;48.384;8.984;2022-10-03T17:27:10;5.07;;;4.40;;
9370;SDS011;4725;48.384;8.984;2022-10-03T17:29:47;9.10;;;4.80;;
9370;SDS011;4725;48.384;8.984;2022-10-03T17:32:22;8.70;;;5.20;;
9370;SDS011;4725;48.384;8.984;2022-10-03T17:34:54;10.33;;;5.83;;
9370;SDS011;4725;48.384;8.984;2022-10-03T17:37:41;7.33;;;5.50;;
9370;SDS011;4725;48.384;8.984;2022-10-03T17:40:31;9.03;;;6.00;;
9370;SDS011;4725;48.384;8.984;2022-10-03T17:43:15;7.87;;;4.73;;
9370;SDS011;4725;48.384;8.984;2022-10-03T17:45:47;5.83;;;4.30;;
9370;SDS011;4725;48.384;8.984;2022-10-03T17:48:25;7.50;;;4.93;;
9370;SDS011;4725;48.384;8.984;2022-10-03T17:51:22;10.33;;;5.83;;
9370;SDS011;4725;48.384;8.984;2022-10-03T17:54:01;5.83;;;4.33;;
9370;SDS011;4725;48.384;8.984;2022-10-03T17:56:31;5.90;;;4.40;;
9370;SDS011;4725;48.384;8.984;2022-10-03T17:59:01;5.77;;;4.00;;
9370;SDS011;4725;48.384;8.984;2022-10-03T18:01:33;6.80;;;5.73;;
9370;SDS011;4725;48.384;8.984;2022-10-03T18:04:06;7.53;;;5.73;;
9370;SDS011;4725;48.384;8.984;2022-10-03T18:06:48;8.57;;;5.90;;
9370;SDS011;4725;48.384;8.984;2022-10-03T18:09:19;7.37;;;5.30;;
9370;SDS011;4725;48.384;8.984;2022-10-03T18:11:58;10.73;;;6.50;;
9370;SDS011;4725;48.384;8.984;2022-10-03T18:14:39;8.67;;;5.73;;
9370;SDS011;4725;48.384;8.984;2022-10-03T18:17:13;5.90;;;5.30;;
9370;SDS011;4725;48.384;8.984;2022-10-03T18:19:55;7.17;;;5.43;;
9370;SDS011;4725;48.384;8.984;2022-10-03T18:22:31;6.37;;;4.80;;
9370;SDS011;4725;48.384;8.984;2022-10-03T18:25:08;8.53;;;5.37;;
9370;SDS011;4725;48.384;8.984;2022-10-03T18:28:02;8.27;;;5.33;;
9370;SDS011;4725;48.384;8.984;2022-10-03T18:30:40;11.90;;;4.97;;
9370;SDS011;4725;48.384;8.984;2022-10-03T18:33:12;8.53;;;5.47;;
9370;SDS011;4725;48.384;8.984;2022-10-03T18:35:43;14.10;;;6.50;;
9370;SDS011;4725;48.384;8.984;2022-10-03T18:38:13;6.83;;;5.33;;
9370;SDS011;4725;48.384;8.984;2022-10-03T18:40:47;13.17;;;6.77;;
9370;SDS011;4725;48.384;8.984;2022-10-03T18:43:24;10.67;;;6.57;;
9370;SDS011;4725;48.384;8.984;2022-10-03T18:45:56;8.20;;;5.93;;
9370;SDS011;4725;48.384;8.984;2022-10-03T18:48:40;6.60;;;5.20;;
9370;SDS011;4725;48.384;8.984;2022-10-03T18:51:16;9.07;;;5.20;;
9370;SDS011;4725;48.384;8.984;2022-10-03T18:53:53;8.73;;;5.30;;
9370;SDS011;4725;48.384;8.984;2022-10-03T18:56:24;8.63;;;5.27;;
9370;SDS011;4725;48.384;8.984;2022-10-03T19:01:43;6.23;;;5.30;;
9370;SDS011;4725;48.384;8.984;2022-10-03T19:04:18;6.80;;;5.37;;
9370;SDS011;4725;48.384;8.984;2022-10-03T19:06:54;9.77;;;5.70;;
9370;SDS011;4725;48.384;8.984;2022-10-03T19:09:24;8.37;;;5.10;;
9370;SDS011;4725;48.384;8.984;2022-10-03T19:11:55;6.73;;;5.17;;
9370;SDS011;4725;48.384;8.984;2022-10-03T19:14:32;8.37;;;5.63;;
9370;SDS011;4725;48.384;8.984;2022-10-03T19:17:18;11.50;;;5.10;;
9370;SDS011;4725;48.384;8.984;2022-10-03T19:19:51;6.37;;;5.40;;
9370;SDS011;4725;48.384;8.984;2022-10-03T19:22:29;6.60;;;5.17;;
9370;SDS011;4725;48.384;8.984;2022-10-03T19:24:58;6.43;;;4.77;;
9370;SDS011;4725;48.384;8.984;2022-10-03T19:27:38;11.17;;;4.70;;
9370;SDS011;4725;48.384;8.984;2022-10-03T19:30:16;7.07;;;4.53;;
9370;SDS011;4725;48.384;8.984;2022-10-03T19:32:46;7.07;;;4.60;;
9370;SDS011;4725;48.384;8.984;2022-10-03T19:35:19;8.10;;;5.20;;
9370;SDS011;4725;48.384;8.984;2022-10-03T19:37:50;8.30;;;4.77;;
9370;SDS011;4725;48.384;8.984;2022-10-03T19:40:27;6.50;;;4.57;;
9370;SDS011;4725;48.384;8.984;2022-10-03T19:45:57;14.10;;;5.13;;
9370;SDS011;4725;48.384;8.984;2022-10-03T19:49:00;6.67;;;5.10;;
9370;SDS011;4725;48.384;8.984;2022-10-03T19:51:40;8.77;;;5.50;;
9370;SDS011;4725;48.384;8.984;2022-10-03T19:54:11;6.17;;;4.87;;
9370;SDS011;4725;48.384;8.984;2022-10-03T19:56:51;8.10;;;4.70;;
9370;SDS011;4725;48.384;8.984;2022-10-03T19:59:34;9.40;;;4.80;;
9370;SDS011;4725;48.384;8.984;2022-10-03T20:02:03;5.30;;;4.40;;
9370;SDS011;4725;48.384;8.984;2022-10-03T20:04:31;7.17;;;5.07;;
9370;SDS011;4725;48.384;8.984;2022-10-03T20:07:00;5.73;;;4.47;;
9370;SDS011;4725;48.384;8.984;2022-10-03T20:09:33;8.90;;;4.53;;
9370;SDS011;4725;48.384;8.984;2022-10-03T20:12:02;7.97;;;4.10;;
9370;SDS011;4725;48.384;8.984;2022-10-03T20:14:34;9.03;;;4.63;;
9370;SDS011;4725;48.384;8.984;2022-10-03T20:17:03;8.87;;;4.93;;